sensor_id;sensor_type;location;lat;lon;timestamp;P1;durP1;ratioP1;P2;durP2;ratioP2
65831;SDS011;52593;42.648;23.332;2023-03-01T00:02:16;6.28;;;2.17;;
65831;SDS011;52593;42.648;23.332;2023-03-01T00:04:41;7.17;;;2.70;;
65831;SDS011;52593;42.648;23.332;2023-03-01T00:07:06;6.87;;;2.67;;
65831;SDS011;52593;42.648;23.332;2023-03-01T00:09:32;7.27;;;2.63;;
65831;SDS011;52593;42.648;23.332;2023-03-01T00:11:57;6.30;;;2.50;;
65831;SDS011;52593;42.648;23.332;2023-03-01T00:14:23;5.83;;;2.10;;
65831;SDS011;52593;42.648;23.332;2023-03-01T00:16:48;6.32;;;2.40;;
65831;SDS011;52593;42.648;23.332;2023-03-01T00:19:15;6.83;;;2.63;;
65831;SDS011;52593;42.648;23.332;2023-03-01T00:21:42;7.97;;;2.97;;
65831;SDS011;52593;42.648;23.332;2023-03-01T00:24:08;7.50;;;2.90;;
65831;SDS011;52593;42.648;23.332;2023-03-01T00:26:34;8.70;;;3.10;;
65831;SDS011;52593;42.648;23.332;2023-03-01T00:28:59;7.95;;;3.10;;
65831;SDS011;52593;42.648;23.332;2023-03-01T00:31:27;6.78;;;2.40;;
65831;SDS011;52593;42.648;23.332;2023-03-01T00:33:55;7.68;;;2.78;;
65831;SDS011;52593;42.648;23.332;2023-03-01T00:36:22;6.67;;;2.77;;
65831;SDS011;52593;42.648;23.332;2023-03-01T00:38:49;7.20;;;2.55;;
65831;SDS011;52593;42.648;23.332;2023-03-01T00:41:15;6.87;;;2.60;;
65831;SDS011;52593;42.648;23.332;2023-03-01T00:43:41;7.28;;;2.60;;
65831;SDS011;52593;42.648;23.332;2023-03-01T00:46:09;6.45;;;2.08;;
65831;SDS011;52593;42.648;23.332;2023-03-01T00:48:45;5.63;;;2.13;;
65831;SDS011;52593;42.648;23.332;2023-03-01T00:51:14;6.50;;;2.30;;
65831;SDS011;52593;42.648;23.332;2023-03-01T00:53:42;6.15;;;2.42;;
65831;SDS011;52593;42.648;23.332;2023-03-01T00:56:09;8.13;;;2.75;;
65831;SDS011;52593;42.648;23.332;2023-03-01T00:58:36;5.82;;;1.98;;
65831;SDS011;52593;42.648;23.332;2023-03-01T01:01:09;7.00;;;2.20;;
65831;SDS011;52593;42.648;23.332;2023-03-01T01:06:37;5.13;;;1.77;;
65831;SDS011;52593;42.648;23.332;2023-03-01T01:09:05;5.70;;;1.90;;
65831;SDS011;52593;42.648;23.332;2023-03-01T01:11:31;5.13;;;1.90;;
65831;SDS011;52593;42.648;23.332;2023-03-01T01:13:57;5.27;;;2.00;;
65831;SDS011;52593;42.648;23.332;2023-03-01T01:16:24;7.28;;;2.20;;
65831;SDS011;52593;42.648;23.332;2023-03-01T01:18:52;4.60;;;1.80;;
65831;SDS011;52593;42.648;23.332;2023-03-01T01:21:19;5.47;;;1.92;;
65831;SDS011;52593;42.648;23.332;2023-03-01T01:23:47;4.32;;;1.50;;
65831;SDS011;52593;42.648;23.332;2023-03-01T01:26:14;5.90;;;1.50;;
65831;SDS011;52593;42.648;23.332;2023-03-01T01:28:44;5.00;;;1.75;;
65831;SDS011;52593;42.648;23.332;2023-03-01T01:31:10;5.30;;;1.80;;
65831;SDS011;52593;42.648;23.332;2023-03-01T01:33:36;4.95;;;1.80;;
65831;SDS011;52593;42.648;23.332;2023-03-01T01:36:03;4.45;;;1.50;;
65831;SDS011;52593;42.648;23.332;2023-03-01T01:38:29;5.00;;;1.57;;
65831;SDS011;52593;42.648;23.332;2023-03-01T01:40:55;5.35;;;1.77;;
65831;SDS011;52593;42.648;23.332;2023-03-01T01:49:12;4.97;;;1.73;;
65831;SDS011;52593;42.648;23.332;2023-03-01T01:51:49;5.13;;;1.50;;
65831;SDS011;52593;42.648;23.332;2023-03-01T01:54:32;5.07;;;1.88;;
65831;SDS011;52593;42.648;23.332;2023-03-01T01:57:01;5.32;;;1.58;;
65831;SDS011;52593;42.648;23.332;2023-03-01T01:59:31;4.80;;;1.50;;
65831;SDS011;52593;42.648;23.332;2023-03-01T02:01:59;4.70;;;1.70;;
65831;SDS011;52593;42.648;23.332;2023-03-01T02:04:28;3.80;;;1.30;;
65831;SDS011;52593;42.648;23.332;2023-03-01T02:06:59;5.10;;;1.75;;
65831;SDS011;52593;42.648;23.332;2023-03-01T02:09:28;4.38;;;1.60;;
65831;SDS011;52593;42.648;23.332;2023-03-01T02:11:56;4.57;;;1.67;;
65831;SDS011;52593;42.648;23.332;2023-03-01T02:14:22;4.70;;;1.63;;
65831;SDS011;52593;42.648;23.332;2023-03-01T02:16:47;3.80;;;1.20;;
65831;SDS011;52593;42.648;23.332;2023-03-01T02:19:17;4.70;;;1.60;;
65831;SDS011;52593;42.648;23.332;2023-03-01T02:22:14;4.28;;;1.50;;
65831;SDS011;52593;42.648;23.332;2023-03-01T02:27:18;4.18;;;1.58;;
65831;SDS011;52593;42.648;23.332;2023-03-01T02:29:49;4.20;;;1.53;;
65831;SDS011;52593;42.648;23.332;2023-03-01T02:32:15;3.88;;;1.60;;
65831;SDS011;52593;42.648;23.332;2023-03-01T02:34:50;4.55;;;1.70;;
65831;SDS011;52593;42.648;23.332;2023-03-01T02:37:17;4.65;;;1.70;;
65831;SDS011;52593;42.648;23.332;2023-03-01T02:39:51;4.30;;;1.60;;
65831;SDS011;52593;42.648;23.332;2023-03-01T02:42:23;4.40;;;1.57;;
65831;SDS011;52593;42.648;23.332;2023-03-01T02:44:55;4.57;;;1.65;;
65831;SDS011;52593;42.648;23.332;2023-03-01T02:47:20;4.40;;;1.80;;
65831;SDS011;52593;42.648;23.332;2023-03-01T02:49:46;5.22;;;1.90;;
65831;SDS011;52593;42.648;23.332;2023-03-01T02:57:40;5.57;;;2.10;;
65831;SDS011;52593;42.648;23.332;2023-03-01T03:00:18;6.35;;;1.98;;
65831;SDS011;52593;42.648;23.332;2023-03-01T03:02:50;5.80;;;2.28;;
65831;SDS011;52593;42.648;23.332;2023-03-01T03:05:21;5.70;;;1.95;;
65831;SDS011;52593;42.648;23.332;2023-03-01T03:07:51;6.35;;;2.17;;
65831;SDS011;52593;42.648;23.332;2023-03-01T03:10:18;5.77;;;2.17;;
65831;SDS011;52593;42.648;23.332;2023-03-01T03:12:58;6.97;;;2.70;;
65831;SDS011;52593;42.648;23.332;2023-03-01T03:15:26;6.50;;;2.40;;
65831;SDS011;52593;42.648;23.332;2023-03-01T03:17:52;7.07;;;2.77;;
65831;SDS011;52593;42.648;23.332;2023-03-01T03:20:19;7.00;;;2.65;;
65831;SDS011;52593;42.648;23.332;2023-03-01T03:22:48;6.95;;;2.65;;
65831;SDS011;52593;42.648;23.332;2023-03-01T03:25:15;7.28;;;2.78;;
65831;SDS011;52593;42.648;23.332;2023-03-01T03:27:43;7.72;;;3.00;;
65831;SDS011;52593;42.648;23.332;2023-03-01T03:30:10;8.53;;;3.40;;
65831;SDS011;52593;42.648;23.332;2023-03-01T03:32:42;9.18;;;3.50;;
65831;SDS011;52593;42.648;23.332;2023-03-01T03:35:20;7.95;;;2.88;;
65831;SDS011;52593;42.648;23.332;2023-03-01T03:37:49;8.50;;;3.17;;
65831;SDS011;52593;42.648;23.332;2023-03-01T03:40:29;7.72;;;3.03;;
65831;SDS011;52593;42.648;23.332;2023-03-01T03:42:54;7.77;;;3.17;;
65831;SDS011;52593;42.648;23.332;2023-03-01T03:45:20;9.55;;;3.78;;
65831;SDS011;52593;42.648;23.332;2023-03-01T03:47:45;7.20;;;2.83;;
65831;SDS011;52593;42.648;23.332;2023-03-01T03:50:29;7.05;;;2.67;;
65831;SDS011;52593;42.648;23.332;2023-03-01T03:52:55;7.70;;;3.47;;
65831;SDS011;52593;42.648;23.332;2023-03-01T03:55:20;7.47;;;2.93;;
65831;SDS011;52593;42.648;23.332;2023-03-01T03:57:47;7.40;;;2.70;;
65831;SDS011;52593;42.648;23.332;2023-03-01T04:00:20;7.90;;;2.78;;
65831;SDS011;52593;42.648;23.332;2023-03-01T04:03:04;7.27;;;2.93;;
65831;SDS011;52593;42.648;23.332;2023-03-01T04:05:30;6.32;;;2.22;;
65831;SDS011;52593;42.648;23.332;2023-03-01T04:07:56;7.05;;;2.70;;
65831;SDS011;52593;42.648;23.332;2023-03-01T04:10:29;7.20;;;2.30;;
65831;SDS011;52593;42.648;23.332;2023-03-01T04:12:56;6.07;;;2.28;;
65831;SDS011;52593;42.648;23.332;2023-03-01T04:15:22;8.33;;;2.90;;
65831;SDS011;52593;42.648;23.332;2023-03-01T04:17:49;7.63;;;2.80;;
65831;SDS011;52593;42.648;23.332;2023-03-01T04:20:20;6.18;;;2.08;;
65831;SDS011;52593;42.648;23.332;2023-03-01T04:22:51;5.78;;;2.10;;
65831;SDS011;52593;42.648;23.332;2023-03-01T04:25:24;5.67;;;1.97;;
65831;SDS011;52593;42.648;23.332;2023-03-01T04:27:50;5.25;;;1.60;;
65831;SDS011;52593;42.648;23.332;2023-03-01T04:30:15;5.57;;;2.00;;
65831;SDS011;52593;42.648;23.332;2023-03-01T04:32:41;5.97;;;2.17;;
65831;SDS011;52593;42.648;23.332;2023-03-01T04:35:06;5.97;;;2.27;;
65831;SDS011;52593;42.648;23.332;2023-03-01T04:37:32;8.25;;;2.28;;
65831;SDS011;52593;42.648;23.332;2023-03-01T04:39:59;8.50;;;2.40;;
65831;SDS011;52593;42.648;23.332;2023-03-01T04:42:26;7.35;;;2.38;;
65831;SDS011;52593;42.648;23.332;2023-03-01T04:44:51;6.97;;;2.27;;
65831;SDS011;52593;42.648;23.332;2023-03-01T04:47:17;6.97;;;2.67;;
65831;SDS011;52593;42.648;23.332;2023-03-01T04:49:42;7.45;;;2.50;;
65831;SDS011;52593;42.648;23.332;2023-03-01T04:52:08;7.83;;;2.93;;
65831;SDS011;52593;42.648;23.332;2023-03-01T04:54:34;8.68;;;2.88;;
65831;SDS011;52593;42.648;23.332;2023-03-01T04:57:01;7.88;;;2.80;;
65831;SDS011;52593;42.648;23.332;2023-03-01T04:59:27;7.23;;;2.63;;
65831;SDS011;52593;42.648;23.332;2023-03-01T05:01:54;7.18;;;2.75;;
65831;SDS011;52593;42.648;23.332;2023-03-01T05:04:25;4.57;;;1.60;;
65831;SDS011;52593;42.648;23.332;2023-03-01T05:06:50;8.47;;;2.43;;
65831;SDS011;52593;42.648;23.332;2023-03-01T05:09:16;6.20;;;2.40;;
65831;SDS011;52593;42.648;23.332;2023-03-01T05:11:42;6.22;;;2.10;;
65831;SDS011;52593;42.648;23.332;2023-03-01T05:14:08;14.43;;;3.03;;
65831;SDS011;52593;42.648;23.332;2023-03-01T05:16:34;7.37;;;2.63;;
65831;SDS011;52593;42.648;23.332;2023-03-01T05:19:01;8.88;;;2.92;;
65831;SDS011;52593;42.648;23.332;2023-03-01T05:21:36;7.72;;;2.63;;
65831;SDS011;52593;42.648;23.332;2023-03-01T05:24:22;8.68;;;2.58;;
65831;SDS011;52593;42.648;23.332;2023-03-01T05:26:48;8.33;;;2.87;;
65831;SDS011;52593;42.648;23.332;2023-03-01T05:29:13;9.30;;;3.00;;
65831;SDS011;52593;42.648;23.332;2023-03-01T05:31:39;8.50;;;2.60;;
65831;SDS011;52593;42.648;23.332;2023-03-01T05:34:04;5.70;;;2.20;;
65831;SDS011;52593;42.648;23.332;2023-03-01T05:36:31;10.30;;;2.47;;
65831;SDS011;52593;42.648;23.332;2023-03-01T05:38:56;5.80;;;2.00;;
65831;SDS011;52593;42.648;23.332;2023-03-01T05:41:22;6.37;;;2.20;;
65831;SDS011;52593;42.648;23.332;2023-03-01T05:43:47;4.53;;;1.73;;
65831;SDS011;52593;42.648;23.332;2023-03-01T05:46:12;5.90;;;2.07;;
65831;SDS011;52593;42.648;23.332;2023-03-01T05:48:40;4.68;;;1.80;;
65831;SDS011;52593;42.648;23.332;2023-03-01T05:51:05;4.90;;;1.77;;
65831;SDS011;52593;42.648;23.332;2023-03-01T05:53:31;5.15;;;2.05;;
65831;SDS011;52593;42.648;23.332;2023-03-01T05:55:56;6.07;;;2.20;;
65831;SDS011;52593;42.648;23.332;2023-03-01T05:58:22;7.80;;;2.20;;
65831;SDS011;52593;42.648;23.332;2023-03-01T06:00:47;7.00;;;2.37;;
65831;SDS011;52593;42.648;23.332;2023-03-01T06:03:14;5.60;;;2.00;;
65831;SDS011;52593;42.648;23.332;2023-03-01T06:05:41;4.93;;;1.80;;
65831;SDS011;52593;42.648;23.332;2023-03-01T06:08:08;5.55;;;2.10;;
65831;SDS011;52593;42.648;23.332;2023-03-01T06:10:35;5.45;;;1.92;;
65831;SDS011;52593;42.648;23.332;2023-03-01T06:13:00;13.77;;;2.47;;
65831;SDS011;52593;42.648;23.332;2023-03-01T06:15:26;7.43;;;2.57;;
65831;SDS011;52593;42.648;23.332;2023-03-01T06:17:53;5.05;;;1.85;;
65831;SDS011;52593;42.648;23.332;2023-03-01T06:20:21;6.93;;;3.15;;
65831;SDS011;52593;42.648;23.332;2023-03-01T06:22:47;8.37;;;3.60;;
65831;SDS011;52593;42.648;23.332;2023-03-01T06:25:15;6.10;;;2.50;;
65831;SDS011;52593;42.648;23.332;2023-03-01T06:27:44;7.95;;;2.20;;
65831;SDS011;52593;42.648;23.332;2023-03-01T06:30:11;8.98;;;2.45;;
65831;SDS011;52593;42.648;23.332;2023-03-01T06:32:39;4.97;;;1.77;;
65831;SDS011;52593;42.648;23.332;2023-03-01T06:35:07;5.87;;;1.80;;
65831;SDS011;52593;42.648;23.332;2023-03-01T06:37:33;8.48;;;1.88;;
65831;SDS011;52593;42.648;23.332;2023-03-01T06:39:58;6.03;;;1.50;;
65831;SDS011;52593;42.648;23.332;2023-03-01T06:42:24;6.28;;;1.80;;
65831;SDS011;52593;42.648;23.332;2023-03-01T06:44:49;4.00;;;1.30;;
65831;SDS011;52593;42.648;23.332;2023-03-01T06:47:14;4.97;;;1.80;;
65831;SDS011;52593;42.648;23.332;2023-03-01T06:49:40;9.73;;;3.57;;
65831;SDS011;52593;42.648;23.332;2023-03-01T06:52:06;9.60;;;3.30;;
65831;SDS011;52593;42.648;23.332;2023-03-01T06:54:31;8.43;;;3.10;;
65831;SDS011;52593;42.648;23.332;2023-03-01T06:56:56;6.67;;;2.60;;
65831;SDS011;52593;42.648;23.332;2023-03-01T06:59:22;7.70;;;2.80;;
65831;SDS011;52593;42.648;23.332;2023-03-01T07:01:47;7.67;;;2.47;;
65831;SDS011;52593;42.648;23.332;2023-03-01T07:04:13;7.20;;;2.40;;
65831;SDS011;52593;42.648;23.332;2023-03-01T07:06:38;6.67;;;2.10;;
65831;SDS011;52593;42.648;23.332;2023-03-01T07:09:04;5.93;;;1.90;;
65831;SDS011;52593;42.648;23.332;2023-03-01T07:11:29;6.83;;;2.30;;
65831;SDS011;52593;42.648;23.332;2023-03-01T07:13:55;5.23;;;1.63;;
65831;SDS011;52593;42.648;23.332;2023-03-01T07:16:21;9.45;;;2.10;;
65831;SDS011;52593;42.648;23.332;2023-03-01T07:18:46;7.20;;;1.93;;
65831;SDS011;52593;42.648;23.332;2023-03-01T07:21:12;7.50;;;1.92;;
65831;SDS011;52593;42.648;23.332;2023-03-01T07:23:39;6.43;;;2.00;;
65831;SDS011;52593;42.648;23.332;2023-03-01T07:26:05;9.00;;;2.45;;
65831;SDS011;52593;42.648;23.332;2023-03-01T07:28:30;5.73;;;2.37;;
65831;SDS011;52593;42.648;23.332;2023-03-01T07:31:00;5.10;;;2.00;;
65831;SDS011;52593;42.648;23.332;2023-03-01T07:33:27;5.30;;;2.05;;
65831;SDS011;52593;42.648;23.332;2023-03-01T07:35:56;5.43;;;1.70;;
65831;SDS011;52593;42.648;23.332;2023-03-01T07:38:26;5.40;;;1.92;;
65831;SDS011;52593;42.648;23.332;2023-03-01T07:40:52;4.97;;;1.73;;
65831;SDS011;52593;42.648;23.332;2023-03-01T07:43:17;9.40;;;2.97;;
65831;SDS011;52593;42.648;23.332;2023-03-01T07:45:43;7.00;;;2.00;;
65831;SDS011;52593;42.648;23.332;2023-03-01T07:48:08;4.93;;;1.85;;
65831;SDS011;52593;42.648;23.332;2023-03-01T07:50:34;5.53;;;1.67;;
65831;SDS011;52593;42.648;23.332;2023-03-01T07:53:00;7.45;;;1.88;;
65831;SDS011;52593;42.648;23.332;2023-03-01T07:55:25;7.80;;;1.90;;
65831;SDS011;52593;42.648;23.332;2023-03-01T07:57:51;7.37;;;1.90;;
65831;SDS011;52593;42.648;23.332;2023-03-01T08:00:16;7.47;;;1.70;;
65831;SDS011;52593;42.648;23.332;2023-03-01T08:02:42;5.20;;;1.60;;
65831;SDS011;52593;42.648;23.332;2023-03-01T08:05:08;7.43;;;1.53;;
65831;SDS011;52593;42.648;23.332;2023-03-01T08:07:34;6.57;;;2.10;;
65831;SDS011;52593;42.648;23.332;2023-03-01T08:10:00;7.37;;;2.47;;
65831;SDS011;52593;42.648;23.332;2023-03-01T08:12:25;3.78;;;1.08;;
65831;SDS011;52593;42.648;23.332;2023-03-01T08:14:53;4.03;;;1.10;;
65831;SDS011;52593;42.648;23.332;2023-03-01T08:17:18;6.93;;;1.40;;
65831;SDS011;52593;42.648;23.332;2023-03-01T08:19:44;8.80;;;1.77;;
65831;SDS011;52593;42.648;23.332;2023-03-01T08:22:09;4.80;;;1.20;;
65831;SDS011;52593;42.648;23.332;2023-03-01T08:24:35;4.73;;;1.40;;
65831;SDS011;52593;42.648;23.332;2023-03-01T08:27:00;5.83;;;1.50;;
65831;SDS011;52593;42.648;23.332;2023-03-01T08:29:27;6.57;;;1.58;;
65831;SDS011;52593;42.648;23.332;2023-03-01T08:31:55;4.95;;;1.40;;
65831;SDS011;52593;42.648;23.332;2023-03-01T08:34:20;5.77;;;2.40;;
65831;SDS011;52593;42.648;23.332;2023-03-01T08:36:46;7.23;;;2.83;;
65831;SDS011;52593;42.648;23.332;2023-03-01T08:39:12;7.65;;;2.30;;
65831;SDS011;52593;42.648;23.332;2023-03-01T08:41:39;5.28;;;1.95;;
65831;SDS011;52593;42.648;23.332;2023-03-01T08:44:05;6.38;;;1.80;;
65831;SDS011;52593;42.648;23.332;2023-03-01T08:46:33;7.33;;;1.70;;
65831;SDS011;52593;42.648;23.332;2023-03-01T08:49:04;4.93;;;1.80;;
65831;SDS011;52593;42.648;23.332;2023-03-01T08:51:35;8.73;;;3.38;;
65831;SDS011;52593;42.648;23.332;2023-03-01T08:54:04;6.85;;;1.85;;
65831;SDS011;52593;42.648;23.332;2023-03-01T08:56:30;5.45;;;1.75;;
65831;SDS011;52593;42.648;23.332;2023-03-01T08:58:55;5.60;;;1.87;;
65831;SDS011;52593;42.648;23.332;2023-03-01T09:01:21;5.97;;;1.90;;
65831;SDS011;52593;42.648;23.332;2023-03-01T09:03:46;5.00;;;1.97;;
65831;SDS011;52593;42.648;23.332;2023-03-01T09:06:12;4.87;;;1.70;;
65831;SDS011;52593;42.648;23.332;2023-03-01T09:08:40;5.47;;;1.83;;
65831;SDS011;52593;42.648;23.332;2023-03-01T09:11:08;7.28;;;2.13;;
65831;SDS011;52593;42.648;23.332;2023-03-01T09:13:35;6.63;;;2.20;;
65831;SDS011;52593;42.648;23.332;2023-03-01T09:16:02;6.32;;;2.05;;
65831;SDS011;52593;42.648;23.332;2023-03-01T09:18:29;6.53;;;2.03;;
65831;SDS011;52593;42.648;23.332;2023-03-01T09:21:04;7.07;;;2.55;;
65831;SDS011;52593;42.648;23.332;2023-03-01T09:23:34;7.65;;;2.03;;
65831;SDS011;52593;42.648;23.332;2023-03-01T09:26:11;4.95;;;1.80;;
65831;SDS011;52593;42.648;23.332;2023-03-01T09:28:40;6.67;;;2.03;;
65831;SDS011;52593;42.648;23.332;2023-03-01T09:31:06;5.43;;;2.00;;
65831;SDS011;52593;42.648;23.332;2023-03-01T09:33:31;5.70;;;2.10;;
65831;SDS011;52593;42.648;23.332;2023-03-01T09:35:58;5.80;;;1.80;;
65831;SDS011;52593;42.648;23.332;2023-03-01T09:38:32;4.43;;;1.58;;
65831;SDS011;52593;42.648;23.332;2023-03-01T09:40:58;7.50;;;1.80;;
65831;SDS011;52593;42.648;23.332;2023-03-01T09:46:05;5.03;;;1.80;;
65831;SDS011;52593;42.648;23.332;2023-03-01T09:49:01;5.97;;;1.65;;
65831;SDS011;52593;42.648;23.332;2023-03-01T09:51:35;5.40;;;1.50;;
65831;SDS011;52593;42.648;23.332;2023-03-01T09:54:02;4.60;;;1.57;;
65831;SDS011;52593;42.648;23.332;2023-03-01T09:56:30;5.95;;;1.77;;
65831;SDS011;52593;42.648;23.332;2023-03-01T10:01:44;4.30;;;1.60;;
65831;SDS011;52593;42.648;23.332;2023-03-01T10:04:39;6.53;;;2.00;;
65831;SDS011;52593;42.648;23.332;2023-03-01T10:07:29;6.93;;;2.23;;
65831;SDS011;52593;42.648;23.332;2023-03-01T10:10:08;5.47;;;1.90;;
65831;SDS011;52593;42.648;23.332;2023-03-01T10:12:48;7.95;;;2.10;;
65831;SDS011;52593;42.648;23.332;2023-03-01T10:15:22;8.43;;;2.00;;
65831;SDS011;52593;42.648;23.332;2023-03-01T10:18:00;5.20;;;1.20;;
65831;SDS011;52593;42.648;23.332;2023-03-01T10:20:55;4.50;;;1.38;;
65831;SDS011;52593;42.648;23.332;2023-03-01T10:23:22;5.20;;;1.48;;
65831;SDS011;52593;42.648;23.332;2023-03-01T10:28:40;6.28;;;2.10;;
65831;SDS011;52593;42.648;23.332;2023-03-01T10:31:32;6.23;;;2.30;;
65831;SDS011;52593;42.648;23.332;2023-03-01T10:34:14;6.88;;;2.20;;
65831;SDS011;52593;42.648;23.332;2023-03-01T10:36:43;4.30;;;1.45;;
65831;SDS011;52593;42.648;23.332;2023-03-01T10:39:17;5.20;;;1.33;;
65831;SDS011;52593;42.648;23.332;2023-03-01T10:42:18;6.90;;;1.92;;
65831;SDS011;52593;42.648;23.332;2023-03-01T10:44:45;6.30;;;1.87;;
65831;SDS011;52593;42.648;23.332;2023-03-01T10:47:20;6.38;;;2.30;;
65831;SDS011;52593;42.648;23.332;2023-03-01T10:49:54;9.30;;;2.63;;
65831;SDS011;52593;42.648;23.332;2023-03-01T10:52:26;7.25;;;2.00;;
65831;SDS011;52593;42.648;23.332;2023-03-01T10:54:57;4.68;;;1.55;;
65831;SDS011;52593;42.648;23.332;2023-03-01T10:57:30;6.80;;;1.83;;
65831;SDS011;52593;42.648;23.332;2023-03-01T11:00:10;4.38;;;1.33;;
65831;SDS011;52593;42.648;23.332;2023-03-01T11:02:48;5.15;;;1.42;;
65831;SDS011;52593;42.648;23.332;2023-03-01T11:05:22;5.50;;;1.75;;
65831;SDS011;52593;42.648;23.332;2023-03-01T11:07:50;5.65;;;1.65;;
65831;SDS011;52593;42.648;23.332;2023-03-01T11:12:50;7.00;;;1.75;;
65831;SDS011;52593;42.648;23.332;2023-03-01T11:15:26;5.82;;;2.17;;
65831;SDS011;52593;42.648;23.332;2023-03-01T11:17:53;8.35;;;3.17;;
65831;SDS011;52593;42.648;23.332;2023-03-01T11:20:24;6.20;;;1.90;;
65831;SDS011;52593;42.648;23.332;2023-03-01T11:22:54;5.70;;;1.87;;
65831;SDS011;52593;42.648;23.332;2023-03-01T11:25:37;5.90;;;1.92;;
65831;SDS011;52593;42.648;23.332;2023-03-01T11:28:07;5.80;;;2.50;;
65831;SDS011;52593;42.648;23.332;2023-03-01T11:42:01;6.50;;;2.10;;
65831;SDS011;52593;42.648;23.332;2023-03-01T11:44:47;6.43;;;1.80;;
65831;SDS011;52593;42.648;23.332;2023-03-01T11:47:32;7.22;;;2.53;;
65831;SDS011;52593;42.648;23.332;2023-03-01T11:50:14;6.60;;;2.60;;
65831;SDS011;52593;42.648;23.332;2023-03-01T11:55:36;7.40;;;2.72;;
65831;SDS011;52593;42.648;23.332;2023-03-01T11:58:08;8.05;;;3.17;;
65831;SDS011;52593;42.648;23.332;2023-03-01T12:03:33;9.80;;;2.63;;
65831;SDS011;52593;42.648;23.332;2023-03-01T12:14:21;8.40;;;2.97;;
65831;SDS011;52593;42.648;23.332;2023-03-01T12:50:02;6.77;;;2.27;;
65831;SDS011;52593;42.648;23.332;2023-03-01T12:55:33;7.00;;;2.67;;
65831;SDS011;52593;42.648;23.332;2023-03-01T13:03:52;6.17;;;2.53;;
65831;SDS011;52593;42.648;23.332;2023-03-01T13:17:49;5.53;;;2.30;;
65831;SDS011;52593;42.648;23.332;2023-03-01T13:20:17;6.07;;;2.30;;
65831;SDS011;52593;42.648;23.332;2023-03-01T13:25:31;5.85;;;2.53;;
65831;SDS011;52593;42.648;23.332;2023-03-01T13:28:40;6.77;;;2.67;;
65831;SDS011;52593;42.648;23.332;2023-03-01T13:31:07;7.82;;;2.58;;
65831;SDS011;52593;42.648;23.332;2023-03-01T13:33:41;7.28;;;2.72;;
65831;SDS011;52593;42.648;23.332;2023-03-01T13:36:10;6.83;;;2.60;;
65831;SDS011;52593;42.648;23.332;2023-03-01T13:39:00;7.18;;;3.08;;
65831;SDS011;52593;42.648;23.332;2023-03-01T13:52:27;7.78;;;3.15;;
65831;SDS011;52593;42.648;23.332;2023-03-01T13:57:43;7.90;;;2.63;;
65831;SDS011;52593;42.648;23.332;2023-03-01T14:00:25;7.40;;;2.85;;
65831;SDS011;52593;42.648;23.332;2023-03-01T14:03:16;7.37;;;2.67;;
65831;SDS011;52593;42.648;23.332;2023-03-01T14:06:05;13.40;;;5.93;;
65831;SDS011;52593;42.648;23.332;2023-03-01T14:08:32;9.07;;;3.97;;
65831;SDS011;52593;42.648;23.332;2023-03-01T14:11:21;12.73;;;4.00;;
65831;SDS011;52593;42.648;23.332;2023-03-01T14:21:41;13.02;;;2.47;;
65831;SDS011;52593;42.648;23.332;2023-03-01T14:24:14;7.27;;;2.50;;
65831;SDS011;52593;42.648;23.332;2023-03-01T14:26:42;7.57;;;2.40;;
65831;SDS011;52593;42.648;23.332;2023-03-01T14:29:22;7.75;;;2.42;;
65831;SDS011;52593;42.648;23.332;2023-03-01T14:32:11;7.43;;;2.63;;
65831;SDS011;52593;42.648;23.332;2023-03-01T14:34:45;11.10;;;5.50;;
65831;SDS011;52593;42.648;23.332;2023-03-01T14:37:20;8.50;;;4.03;;
65831;SDS011;52593;42.648;23.332;2023-03-01T14:39:49;7.85;;;2.90;;
65831;SDS011;52593;42.648;23.332;2023-03-01T14:42:15;8.05;;;3.63;;
65831;SDS011;52593;42.648;23.332;2023-03-01T14:44:45;8.37;;;3.70;;
65831;SDS011;52593;42.648;23.332;2023-03-01T14:47:14;7.15;;;3.00;;
65831;SDS011;52593;42.648;23.332;2023-03-01T14:49:44;17.90;;;3.35;;
65831;SDS011;52593;42.648;23.332;2023-03-01T14:52:22;15.70;;;3.17;;
65831;SDS011;52593;42.648;23.332;2023-03-01T14:54:56;6.35;;;2.70;;
65831;SDS011;52593;42.648;23.332;2023-03-01T14:57:22;7.97;;;2.87;;
65831;SDS011;52593;42.648;23.332;2023-03-01T14:59:50;7.10;;;3.08;;
65831;SDS011;52593;42.648;23.332;2023-03-01T15:02:19;9.25;;;3.13;;
65831;SDS011;52593;42.648;23.332;2023-03-01T15:04:48;8.45;;;2.40;;
65831;SDS011;52593;42.648;23.332;2023-03-01T15:07:16;8.00;;;2.60;;
65831;SDS011;52593;42.648;23.332;2023-03-01T15:09:42;10.60;;;2.87;;
65831;SDS011;52593;42.648;23.332;2023-03-01T15:14:52;7.78;;;2.75;;
65831;SDS011;52593;42.648;23.332;2023-03-01T15:17:26;14.90;;;5.40;;
65831;SDS011;52593;42.648;23.332;2023-03-01T15:19:58;8.13;;;3.20;;
65831;SDS011;52593;42.648;23.332;2023-03-01T15:22:25;7.43;;;2.73;;
65831;SDS011;52593;42.648;23.332;2023-03-01T15:24:52;8.43;;;2.90;;
65831;SDS011;52593;42.648;23.332;2023-03-01T15:27:19;7.80;;;2.95;;
65831;SDS011;52593;42.648;23.332;2023-03-01T15:29:57;12.10;;;3.40;;
65831;SDS011;52593;42.648;23.332;2023-03-01T15:34:52;9.43;;;3.20;;
65831;SDS011;52593;42.648;23.332;2023-03-01T15:37:40;8.38;;;2.75;;
65831;SDS011;52593;42.648;23.332;2023-03-01T15:42:46;8.15;;;3.38;;
65831;SDS011;52593;42.648;23.332;2023-03-01T15:47:41;7.95;;;2.67;;
65831;SDS011;52593;42.648;23.332;2023-03-01T15:50:17;8.63;;;2.20;;
65831;SDS011;52593;42.648;23.332;2023-03-01T15:52:46;7.40;;;2.55;;
65831;SDS011;52593;42.648;23.332;2023-03-01T15:55:19;7.63;;;2.70;;
65831;SDS011;52593;42.648;23.332;2023-03-01T15:57:47;8.48;;;2.65;;
65831;SDS011;52593;42.648;23.332;2023-03-01T16:00:13;7.63;;;2.80;;
65831;SDS011;52593;42.648;23.332;2023-03-01T16:02:41;7.43;;;2.70;;
65831;SDS011;52593;42.648;23.332;2023-03-01T16:05:13;8.68;;;2.88;;
65831;SDS011;52593;42.648;23.332;2023-03-01T16:07:43;7.95;;;2.70;;
65831;SDS011;52593;42.648;23.332;2023-03-01T16:10:08;8.73;;;2.90;;
65831;SDS011;52593;42.648;23.332;2023-03-01T16:12:34;7.47;;;2.28;;
65831;SDS011;52593;42.648;23.332;2023-03-01T16:14:59;6.97;;;2.60;;
65831;SDS011;52593;42.648;23.332;2023-03-01T16:17:25;10.07;;;3.17;;
65831;SDS011;52593;42.648;23.332;2023-03-01T16:19:50;7.93;;;2.90;;
65831;SDS011;52593;42.648;23.332;2023-03-01T16:22:16;8.67;;;2.77;;
65831;SDS011;52593;42.648;23.332;2023-03-01T16:24:41;10.07;;;2.73;;
65831;SDS011;52593;42.648;23.332;2023-03-01T16:27:07;7.87;;;2.57;;
65831;SDS011;52593;42.648;23.332;2023-03-01T16:29:32;9.20;;;2.60;;
65831;SDS011;52593;42.648;23.332;2023-03-01T16:32:01;8.75;;;2.85;;
65831;SDS011;52593;42.648;23.332;2023-03-01T16:34:26;8.77;;;2.92;;
65831;SDS011;52593;42.648;23.332;2023-03-01T16:36:51;8.33;;;2.20;;
65831;SDS011;52593;42.648;23.332;2023-03-01T16:39:17;8.17;;;3.33;;
65831;SDS011;52593;42.648;23.332;2023-03-01T16:41:42;12.63;;;5.20;;
65831;SDS011;52593;42.648;23.332;2023-03-01T16:44:07;8.50;;;2.93;;
65831;SDS011;52593;42.648;23.332;2023-03-01T16:46:33;7.67;;;2.63;;
65831;SDS011;52593;42.648;23.332;2023-03-01T16:48:58;7.30;;;2.37;;
65831;SDS011;52593;42.648;23.332;2023-03-01T16:51:24;7.93;;;2.80;;
65831;SDS011;52593;42.648;23.332;2023-03-01T16:53:50;7.50;;;2.53;;
65831;SDS011;52593;42.648;23.332;2023-03-01T16:56:15;8.68;;;2.53;;
65831;SDS011;52593;42.648;23.332;2023-03-01T16:58:42;6.70;;;2.30;;
65831;SDS011;52593;42.648;23.332;2023-03-01T17:01:09;10.50;;;3.20;;
65831;SDS011;52593;42.648;23.332;2023-03-01T17:03:42;10.30;;;2.87;;
65831;SDS011;52593;42.648;23.332;2023-03-01T17:06:12;7.05;;;2.20;;
65831;SDS011;52593;42.648;23.332;2023-03-01T17:08:39;7.93;;;2.33;;